Time;durP1;ratioP1;P1;durP2;ratioP2;P2;SDS_P1;SDS_P2;PMS_P1;PMS_P2;Temp;Humidity;BMP_temperature;BMP_pressure;BME280_temperature;BME280_humidity;BME280_pressure;Samples;Min_cycle;Max_cycle;Signal;HPM_P1;HPM_P2
2023/04/12 00:00:49;;;;;;;6.45;1.45;;;;;;;7.75;100.00;100482.00;5225245;28;20029;-76
2023/04/12 00:03:20;;;;;;;5.95;2.53;;;;;;;7.75;100.00;100482.00;5225144;28;20055;-75
2023/04/12 00:05:53;;;;;;;7.82;1.23;;;;;;;7.74;100.00;100465.13;5207359;28;20052;-76
2023/04/12 00:08:25;;;;;;;3.55;1.13;;;;;;;7.77;100.00;100448.78;5224270;28;20490;-75
2023/04/12 00:10:55;;;;;;;4.43;1.00;;;;;;;7.78;100.00;100438.94;5224772;28;20025;-75
2023/04/12 00:13:26;;;;;;;3.70;1.00;;;;;;;7.80;100.00;100431.63;5224946;28;20374;-75
2023/04/12 00:15:56;;;;;;;7.63;1.20;;;;;;;7.81;100.00;100429.78;5224841;28;20624;-75
2023/04/12 00:18:27;;;;;;;3.58;1.27;;;;;;;7.81;100.00;100427.13;5224370;28;20027;-75
2023/04/12 00:20:57;;;;;;;5.72;1.20;;;;;;;7.83;100.00;100411.75;5224312;28;20035;-76
2023/04/12 00:23:28;;;;;;;3.42;1.17;;;;;;;7.82;100.00;100402.06;5224796;28;20396;-75
2023/04/12 00:25:58;;;;;;;5.20;1.05;;;;;;;7.80;100.00;100399.56;5222364;28;20082;-76
2023/04/12 00:28:29;;;;;;;6.85;1.30;;;;;;;7.84;100.00;100392.91;5206497;28;20096;-75
2023/04/12 00:30:59;;;;;;;4.07;1.00;;;;;;;7.84;100.00;100406.28;5224847;28;20116;-75
2023/04/12 00:33:30;;;;;;;4.45;1.30;;;;;;;7.86;100.00;100388.25;5224157;28;20488;-76
2023/04/12 00:36:00;;;;;;;2.60;1.13;;;;;;;7.91;100.00;100377.09;5224797;28;20557;-76
2023/04/12 00:38:31;;;;;;;1.90;1.10;;;;;;;7.92;100.00;100376.09;5224059;28;20024;-76
2023/04/12 00:41:02;;;;;;;3.85;1.17;;;;;;;7.91;100.00;100364.56;5206660;28;20046;-75
2023/04/12 00:43:33;;;;;;;3.92;1.08;;;;;;;7.89;100.00;100355.88;5224225;28;20110;-76
2023/04/12 00:46:03;;;;;;;4.03;1.27;;;;;;;7.93;100.00;100359.06;5224084;28;20053;-76
2023/04/12 00:48:36;;;;;;;5.45;1.27;;;;;;;7.93;100.00;100345.69;5223785;28;20555;-76
2023/04/12 00:51:07;;;;;;;3.17;1.00;;;;;;;7.87;100.00;100333.00;5206524;28;20170;-76
2023/04/12 00:53:39;;;;;;;4.85;1.27;;;;;;;7.87;100.00;100330.31;5206378;28;20156;-76
2023/04/12 00:56:10;;;;;;;4.57;1.17;;;;;;;7.81;100.00;100329.13;5223800;28;20036;-76
2023/04/12 00:58:41;;;;;;;5.70;1.10;;;;;;;7.79;100.00;100309.78;5206088;28;20033;-76
2023/04/12 01:01:12;;;;;;;4.20;1.35;;;;;;;7.74;100.00;100298.75;5223946;28;20543;-76
2023/04/12 01:03:43;;;;;;;4.03;1.05;;;;;;;7.71;100.00;100288.38;5224390;28;20025;-76
2023/04/12 01:06:36;;;;;;;4.90;1.00;;;;;;;7.69;100.00;100293.06;5224067;28;20055;-76
2023/04/12 01:09:14;;;;;;;4.05;1.40;;;;;;;7.65;100.00;100268.50;5206257;28;20043;-76
2023/04/12 01:12:11;;;;;;;6.28;1.80;;;;;;;7.66;100.00;100269.34;5206291;28;20051;-76
2023/04/12 01:14:54;;;;;;;6.60;1.40;;;;;;;7.64;100.00;100266.84;5224305;28;20420;-76
2023/04/12 01:17:29;;;;;;;4.60;1.42;;;;;;;7.65;100.00;100251.66;5223407;28;20062;-76
2023/04/12 01:20:24;;;;;;;6.90;1.20;;;;;;;7.63;100.00;100240.28;5231152;28;20098;-76
2023/04/12 01:23:41;;;;;;;4.53;2.00;;;;;;;7.62;100.00;100235.94;5220780;28;20033;-76
2023/04/12 01:26:44;;;;;;;5.35;1.35;;;;;;;7.59;100.00;100209.59;5220277;28;20041;-77
2023/04/12 01:29:20;;;;;;;4.40;1.10;;;;;;;7.59;100.00;100201.59;5206553;28;20386;-76
2023/04/12 01:31:59;;;;;;;4.28;1.15;;;;;;;7.59;100.00;100193.56;5223687;28;20036;-76
2023/04/12 01:34:32;;;;;;;3.35;1.27;;;;;;;7.53;100.00;100181.72;5223836;28;20021;-77
2023/04/12 01:37:03;;;;;;;6.53;2.03;;;;;;;7.52;100.00;100183.53;5205888;28;20032;-76
2023/04/12 01:39:34;;;;;;;3.00;1.38;;;;;;;7.52;100.00;100178.19;5222775;28;20048;-76
2023/04/12 01:42:05;;;;;;;6.00;1.40;;;;;;;7.57;100.00;100166.19;5204630;28;20258;-75
2023/04/12 01:44:35;;;;;;;5.63;2.22;;;;;;;7.56;100.00;100168.03;5223954;28;20035;-75
2023/04/12 01:47:06;;;;;;;5.68;1.60;;;;;;;7.58;100.00;100151.84;5205441;28;20029;-75
2023/04/12 01:49:51;;;;;;;4.97;1.10;;;;;;;7.60;100.00;100153.38;5206248;28;20031;-75
2023/04/12 01:52:29;;;;;;;7.75;1.38;;;;;;;7.58;100.00;100149.16;5217538;28;20057;-75
2023/04/12 01:55:03;;;;;;;3.60;1.40;;;;;;;7.62;100.00;100135.34;5223967;28;20494;-75
2023/04/12 01:57:49;;;;;;;3.50;1.27;;;;;;;7.63;100.00;100126.34;5223370;28;20017;-75
2023/04/12 02:00:20;;;;;;;4.90;1.70;;;;;;;7.67;100.00;100117.00;5192747;28;20477;-75
2023/04/12 02:02:51;;;;;;;5.65;1.45;;;;;;;7.71;100.00;100109.50;5223490;28;20033;-76
2023/04/12 02:05:24;;;;;;;5.55;1.00;;;;;;;7.69;100.00;100109.66;5225101;28;20025;-76
2023/04/12 02:07:55;;;;;;;8.85;1.45;;;;;;;7.75;100.00;100092.16;5226053;28;20033;-76
2023/04/12 02:10:39;;;;;;;4.05;1.10;;;;;;;7.74;100.00;100091.31;5227750;28;20055;-75
2023/04/12 02:13:09;;;;;;;2.97;1.33;;;;;;;7.76;100.00;100078.63;5210011;28;20040;-75
2023/04/12 02:15:40;;;;;;;5.28;1.33;;;;;;;7.78;100.00;100075.78;5227633;28;20025;-76
2023/04/12 02:18:12;;;;;;;5.03;1.15;;;;;;;7.80;100.00;100063.09;5226951;28;20048;-76
2023/04/12 02:20:43;;;;;;;3.72;0.95;;;;;;;7.80;100.00;100057.78;5227292;28;20025;-75
2023/04/12 02:23:14;;;;;;;4.13;1.00;;;;;;;7.84;100.00;100052.94;5227761;28;20025;-76
2023/04/12 02:25:45;;;;;;;2.53;1.17;;;;;;;7.87;100.00;100053.41;5226832;28;20025;-75
2023/04/12 02:28:15;;;;;;;5.60;1.35;;;;;;;7.91;100.00;100036.06;5226854;28;20025;-76
2023/04/12 02:30:46;;;;;;;3.85;1.10;;;;;;;7.92;100.00;100036.88;5209399;28;20075;-76
2023/04/12 02:33:16;;;;;;;1.50;0.90;;;;;;;7.89;100.00;100029.22;5227346;28;20120;-76
2023/04/12 02:35:47;;;;;;;4.35;1.13;;;;;;;7.92;100.00;100023.53;5209435;28;20428;-75
2023/04/12 02:38:17;;;;;;;3.60;1.20;;;;;;;7.93;100.00;100034.06;5226470;28;20406;-76
2023/04/12 02:40:48;;;;;;;5.57;1.30;;;;;;;7.93;100.00;100031.41;5226682;28;20588;-76
2023/04/12 02:43:18;;;;;;;4.47;1.45;;;;;;;7.91;100.00;100021.88;5226892;28;20032;-76
2023/04/12 02:45:49;;;;;;;3.78;1.40;;;;;;;7.88;100.00;100009.72;5226733;28;20025;-76
2023/04/12 02:48:19;;;;;;;4.30;1.00;;;;;;;7.88;100.00;100006.16;5226173;28;20021;-76
2023/04/12 02:50:49;;;;;;;3.08;1.17;;;;;;;7.84;100.00;100005.69;5208752;28;20020;-76
2023/04/12 02:53:20;;;;;;;2.40;1.17;;;;;;;7.83;100.00;100005.84;5208730;28;20108;-77
2023/04/12 02:55:51;;;;;;;1.73;1.00;;;;;;;7.79;100.00;99990.19;5226585;28;20024;-77
2023/04/12 02:58:23;;;;;;;2.67;1.20;;;;;;;7.77;100.00;99984.16;5226043;28;20023;-76
2023/04/12 03:00:53;;;;;;;2.70;1.13;;;;;;;7.75;100.00;99982.69;5209006;28;20024;-77
2023/04/12 03:03:24;;;;;;;4.63;1.38;;;;;;;7.77;100.00;99981.50;5226166;28;20028;-76
2023/04/12 03:05:55;;;;;;;6.88;1.45;;;;;;;7.75;100.00;99977.34;5208814;28;20393;-76
2023/04/12 03:08:25;;;;;;;3.20;0.90;;;;;;;7.75;100.00;99964.81;5226023;28;20028;-76
2023/04/12 03:10:56;;;;;;;3.05;1.25;;;;;;;7.78;100.00;99961.81;5225730;28;20024;-77
2023/04/12 03:13:27;;;;;;;3.70;1.45;;;;;;;7.79;100.00;99968.00;5226194;28;20115;-76
2023/04/12 03:15:58;;;;;;;3.78;1.40;;;;;;;7.79;100.00;99959.97;5225686;28;20077;-77
2023/04/12 03:18:29;;;;;;;5.03;1.40;;;;;;;7.81;100.00;99951.78;5225134;28;20060;-77
2023/04/12 03:21:01;;;;;;;6.85;1.60;;;;;;;7.82;100.00;99951.59;5225591;28;20549;-77
2023/04/12 03:23:31;;;;;;;3.25;1.20;;;;;;;7.82;100.00;99954.28;5208291;28;20025;-77
2023/04/12 03:26:02;;;;;;;6.72;1.60;;;;;;;7.83;100.00;99939.94;5225606;28;20086;-76
2023/04/12 03:28:33;;;;;;;2.10;1.10;;;;;;;7.85;100.00;99945.09;5207538;28;20135;-77
2023/04/12 03:31:04;;;;;;;5.25;1.40;;;;;;;7.85;100.00;99931.75;5207960;28;20028;-76
2023/04/12 03:33:34;;;;;;;5.38;1.42;;;;;;;7.85;100.00;99935.25;5225908;28;20021;-77
2023/04/12 03:36:06;;;;;;;4.18;1.55;;;;;;;7.86;100.00;99928.91;5212432;28;20043;-77
2023/04/12 03:38:36;;;;;;;3.60;1.23;;;;;;;7.87;100.00;99932.41;5225065;28;20103;-77
2023/04/12 03:41:07;;;;;;;2.67;1.38;;;;;;;7.86;100.00;99917.41;5207834;28;20507;-77
2023/04/12 03:43:37;;;;;;;3.47;1.73;;;;;;;7.88;100.00;99920.72;5212297;28;20689;-77
2023/04/12 03:46:08;;;;;;;4.70;1.50;;;;;;;7.90;100.00;99919.56;5225635;28;20108;-76
2023/04/12 03:48:38;;;;;;;6.22;1.60;;;;;;;7.88;100.00;99900.22;5225407;28;20031;-77
2023/04/12 03:51:10;;;;;;;3.53;1.70;;;;;;;7.92;100.00;99900.69;5225151;28;20017;-76
2023/04/12 03:53:41;;;;;;;4.00;1.50;;;;;;;7.88;100.00;99884.19;5207377;28;20028;-76
2023/04/12 03:56:11;;;;;;;6.05;2.25;;;;;;;7.90;100.00;99894.69;5225178;28;20025;-76
2023/04/12 03:58:42;;;;;;;6.32;1.67;;;;;;;7.90;100.00;99886.69;5207471;28;20111;-76
2023/04/12 04:01:14;;;;;;;5.43;1.30;;;;;;;7.92;100.00;99884.66;5225500;28;20036;-76
2023/04/12 04:03:44;;;;;;;3.67;1.55;;;;;;;7.93;100.00;99875.63;5224957;28;20021;-76
2023/04/12 04:06:16;;;;;;;8.10;1.70;;;;;;;7.92;100.00;99869.47;5207199;28;20396;-76
2023/04/12 04:08:47;;;;;;;5.85;1.88;;;;;;;7.92;100.00;99880.16;5207009;28;20033;-76
2023/04/12 04:11:17;;;;;;;5.32;1.50;;;;;;;7.94;100.00;99874.66;5207429;28;20151;-76
2023/04/12 04:13:48;;;;;;;4.57;1.30;;;;;;;7.93;100.00;99864.94;5225402;28;20029;-76
2023/04/12 04:16:18;;;;;;;6.65;1.70;;;;;;;7.90;100.00;99871.47;5224469;28;20031;-76
2023/04/12 04:18:49;;;;;;;4.82;1.67;;;;;;;7.93;100.00;99860.47;5190495;28;20028;-76
2023/04/12 04:21:21;;;;;;;4.07;1.52;;;;;;;7.92;100.00;99864.13;5224533;28;20503;-76
2023/04/12 04:23:51;;;;;;;5.68;1.60;;;;;;;7.91;100.00;99872.31;5224993;28;20154;-76
2023/04/12 04:26:32;;;;;;;3.22;1.30;;;;;;;7.94;100.00;99866.63;5224428;28;20108;-76
2023/04/12 04:29:03;;;;;;;3.60;1.70;;;;;;;7.94;100.00;99862.13;5206807;28;20094;-76
2023/04/12 04:31:35;;;;;;;3.53;1.65;;;;;;;7.94;100.00;99861.28;5224307;28;20082;-76
2023/04/12 04:34:05;;;;;;;5.97;1.73;;;;;;;7.94;100.00;99853.28;5224766;28;20122;-76
2023/04/12 04:36:37;;;;;;;2.53;1.40;;;;;;;7.96;100.00;99856.59;5224389;28;20025;-76
2023/04/12 04:39:07;;;;;;;5.05;1.35;;;;;;;7.98;100.00;99862.59;5224610;28;20024;-76
2023/04/12 04:41:38;;;;;;;8.15;1.48;;;;;;;7.97;100.00;99853.75;5223844;28;20107;-76
2023/04/12 04:44:09;;;;;;;5.10;1.55;;;;;;;7.99;100.00;99848.25;5212087;28;20041;-76
2023/04/12 04:46:40;;;;;;;6.57;1.90;;;;;;;7.98;100.00;99852.78;5223893;28;20532;-76
2023/04/12 04:49:10;;;;;;;6.65;1.30;;;;;;;7.99;100.00;99843.75;5224497;28;20107;-76
2023/04/12 04:51:41;;;;;;;3.63;1.30;;;;;;;8.00;100.00;99850.75;5223487;28;20071;-76
2023/04/12 04:54:12;;;;;;;2.75;1.25;;;;;;;8.02;100.00;99851.38;5224779;28;20040;-76
2023/04/12 04:56:43;;;;;;;1.95;1.38;;;;;;;8.02;100.00;99854.06;5224019;28;20021;-76
2023/04/12 04:59:13;;;;;;;2.15;1.23;;;;;;;8.02;100.00;99848.72;5224752;28;20024;-76
2023/04/12 05:01:44;;;;;;;2.22;1.35;;;;;;;8.05;100.00;99844.88;5206737;28;20025;-76
2023/04/12 05:04:15;;;;;;;3.28;1.10;;;;;;;8.02;100.00;99843.38;5206842;28;20035;-76
2023/04/12 05:06:45;;;;;;;6.53;1.98;;;;;;;8.05;100.00;99845.72;5206164;28;20032;-76
2023/04/12 05:09:15;;;;;;;2.72;1.30;;;;;;;8.08;100.00;99846.34;5224340;28;20024;-76
2023/04/12 05:11:46;;;;;;;4.05;1.40;;;;;;;8.03;100.00;99839.72;5206630;28;20094;-76
2023/04/12 05:14:16;;;;;;;4.68;1.40;;;;;;;8.07;100.00;99842.84;5224396;28;20025;-76
2023/04/12 05:16:47;;;;;;;4.90;1.25;;;;;;;8.07;100.00;99850.88;5223461;28;20505;-76
2023/04/12 05:19:17;;;;;;;5.13;1.17;;;;;;;8.11;100.00;99849.53;5223710;28;20024;-76
2023/04/12 05:21:48;;;;;;;8.75;4.22;;;;;;;8.14;100.00;99845.69;5206280;28;20116;-76
2023/04/12 05:24:18;;;;;;;45.13;21.55;;;;;;;8.15;100.00;99848.16;5224217;28;20029;-76
2023/04/12 05:26:49;;;;;;;69.00;32.63;;;;;;;8.13;100.00;99850.16;5223779;28;20057;-76
2023/04/12 05:29:20;;;;;;;75.97;36.03;;;;;;;8.14;100.00;99845.69;5205886;28;20087;-76
2023/04/12 05:31:50;;;;;;;52.95;28.95;;;;;;;8.19;100.00;99851.34;5206351;28;20021;-76
2023/04/12 05:34:21;;;;;;;4.40;2.80;;;;;;;8.33;100.00;99861.25;5224452;28;20048;-76
2023/04/12 05:36:51;;;;;;;5.63;2.65;;;;;;;8.37;100.00;99859.09;5223144;28;20029;-76
2023/04/12 05:39:22;;;;;;;4.68;1.70;;;;;;;8.32;100.00;99864.94;5224457;28;20456;-76
2023/04/12 05:41:52;;;;;;;4.63;2.13;;;;;;;8.24;100.00;99849.81;5223472;28;20036;-76
2023/04/12 05:44:23;;;;;;;5.20;3.15;;;;;;;8.20;100.00;99853.81;5228409;28;20028;-76
2023/04/12 05:46:56;;;;;;;4.93;2.47;;;;;;;8.19;100.00;99848.66;5210279;28;20029;-76
2023/04/12 05:49:30;;;;;;;5.07;2.70;;;;;;;8.18;100.00;99842.50;5227891;28;20032;-75
2023/04/12 05:52:01;;;;;;;6.18;2.90;;;;;;;8.20;100.00;99842.31;5220540;28;20025;-76
2023/04/12 05:54:31;;;;;;;6.72;2.50;;;;;;;8.19;100.00;99843.31;5210893;28;20552;-75
2023/04/12 05:57:02;;;;;;;6.28;2.28;;;;;;;8.24;100.00;99839.13;5227988;28;20115;-75
2023/04/12 05:59:33;;;;;;;7.10;2.22;;;;;;;8.25;100.00;99843.44;5228066;28;20059;-75
2023/04/12 06:02:03;;;;;;;8.73;2.30;;;;;;;8.30;100.00;99834.91;5228099;28;20028;-75
2023/04/12 06:04:34;;;;;;;7.30;2.90;;;;;;;8.32;100.00;99833.69;5227342;28;20082;-75
2023/04/12 06:07:05;;;;;;;10.45;3.40;;;;;;;8.38;100.00;99836.72;5227254;28;20021;-75
2023/04/12 06:09:35;;;;;;;8.00;2.70;;;;;;;8.40;100.00;99840.88;5209679;28;20071;-75
2023/04/12 06:12:06;;;;;;;7.00;2.50;;;;;;;8.43;100.00;99845.03;5227533;28;20036;-75
2023/04/12 06:14:36;;;;;;;8.57;1.90;;;;;;;8.41;100.00;99852.41;5227639;28;20021;-76
2023/04/12 06:17:06;;;;;;;6.63;1.95;;;;;;;8.47;100.00;99862.38;5226627;28;20044;-74
2023/04/12 06:19:37;;;;;;;13.20;1.85;;;;;;;8.48;100.00;99843.50;5227708;28;20075;-74
2023/04/12 06:22:08;;;;;;;9.32;2.28;;;;;;;8.53;100.00;99851.84;5209566;28;20032;-74
2023/04/12 06:24:38;;;;;;;8.25;2.17;;;;;;;8.53;100.00;99856.31;5227702;28;20389;-78
2023/04/12 06:27:09;;;;;;;6.18;1.95;;;;;;;8.52;100.00;99857.34;5227197;28;20111;-76
2023/04/12 06:29:39;;;;;;;4.82;2.25;;;;;;;8.56;100.00;99853.31;5227722;28;20082;-75
2023/04/12 06:32:10;;;;;;;7.65;3.05;;;;;;;8.59;100.00;99846.78;5192170;28;20025;-75
2023/04/12 06:34:40;;;;;;;10.57;2.63;;;;;;;8.61;100.00;99842.91;5228448;28;20031;-75
2023/04/12 06:37:11;;;;;;;6.43;2.17;;;;;;;8.62;100.00;99854.44;5209893;28;20024;-75
2023/04/12 06:39:41;;;;;;;7.53;2.75;;;;;;;8.61;100.00;99847.44;5227605;28;20020;-75
2023/04/12 06:42:12;;;;;;;10.80;2.58;;;;;;;8.65;100.00;99854.09;5227090;28;20082;-76
2023/04/12 06:44:43;;;;;;;8.63;2.53;;;;;;;8.65;100.00;99854.09;5228082;28;20028;-76
2023/04/12 06:47:14;;;;;;;7.72;2.92;;;;;;;8.67;100.00;99858.22;5209379;28;20025;-76
2023/04/12 06:49:44;;;;;;;8.25;2.85;;;;;;;8.70;100.00;99860.56;5227471;28;20024;-76
2023/04/12 06:52:15;;;;;;;13.45;3.10;;;;;;;8.74;100.00;99855.69;5227465;28;20046;-76
2023/04/12 06:54:45;;;;;;;11.75;2.97;;;;;;;8.76;100.00;99849.16;5209421;28;20401;-76
2023/04/12 06:57:16;;;;;;;13.40;3.08;;;;;;;8.82;100.00;99843.06;5226901;28;20021;-75
2023/04/12 06:59:46;;;;;;;6.05;1.92;;;;;;;8.86;100.00;99842.72;5226730;28;20174;-75
2023/04/12 07:02:17;;;;;;;11.15;2.10;;;;;;;8.83;100.00;99843.91;5227169;28;20522;-75
2023/04/12 07:05:03;;;;;;;9.00;2.60;;;;;;;8.84;100.00;99850.13;5226762;28;20371;-75
2023/04/12 07:07:34;;;;;;;10.88;2.20;;;;;;;8.76;100.00;99837.63;5226223;28;20021;-75
2023/04/12 07:10:05;;;;;;;12.18;2.55;;;;;;;8.74;100.00;99839.66;5209079;28;20082;-74
2023/04/12 07:12:36;;;;;;;9.25;3.30;;;;;;;8.69;100.00;99842.88;5226708;28;20447;-75
2023/04/12 07:15:07;;;;;;;14.27;3.08;;;;;;;8.62;100.00;99841.06;5227248;28;20025;-74
2023/04/12 07:17:38;;;;;;;14.50;3.17;;;;;;;8.59;100.00;99844.94;5226142;28;20024;-74
2023/04/12 07:20:09;;;;;;;8.32;3.40;;;;;;;8.65;100.00;99844.22;5226588;28;20024;-74
2023/04/12 07:22:40;;;;;;;6.45;2.58;;;;;;;8.64;100.00;99841.75;5208873;28;20025;-74
2023/04/12 07:25:10;;;;;;;12.65;3.22;;;;;;;8.67;100.00;99830.66;5226827;28;20074;-74
2023/04/12 07:27:41;;;;;;;9.85;2.20;;;;;;;8.63;100.00;99834.69;5208221;28;20108;-74
2023/04/12 07:30:12;;;;;;;4.70;1.73;;;;;;;8.72;100.00;99838.97;5208106;28;20772;-74
2023/04/12 07:32:42;;;;;;;9.57;2.08;;;;;;;8.81;100.00;99835.25;5208509;28;20067;-76
2023/04/12 07:35:13;;;;;;;6.97;2.33;;;;;;;8.91;100.00;99837.66;5225911;28;20025;-74
2023/04/12 07:37:44;;;;;;;13.35;2.38;;;;;;;9.01;100.00;99840.94;5225913;28;20024;-74
2023/04/12 07:40:14;;;;;;;9.73;2.85;;;;;;;9.16;100.00;99844.47;5226085;28;20071;-74
2023/04/12 07:42:45;;;;;;;10.43;2.03;;;;;;;9.12;100.00;99840.50;5208370;28;20120;-74
2023/04/12 07:45:16;;;;;;;8.43;2.20;;;;;;;9.21;100.00;99841.25;5225737;28;20021;-74
2023/04/12 07:47:46;;;;;;;14.70;4.22;;;;;;;9.49;100.00;99845.00;5225397;28;20029;-74
2023/04/12 07:50:17;;;;;;;8.68;2.58;;;;;;;9.66;100.00;99850.16;5225490;28;20385;-74
2023/04/12 07:52:48;;;;;;;10.95;2.25;;;;;;;9.67;100.00;99847.28;5225110;28;20033;-74
2023/04/12 07:55:18;;;;;;;16.15;4.43;;;;;;;9.86;100.00;99852.09;5225371;28;20029;-74
2023/04/12 07:57:49;;;;;;;11.30;2.42;;;;;;;9.94;100.00;99836.91;5207215;28;20047;-75
2023/04/12 08:00:20;;;;;;;11.25;2.38;;;;;;;9.92;100.00;99831.75;5207550;28;20013;-74
2023/04/12 08:02:50;;;;;;;12.90;2.70;;;;;;;9.93;100.00;99828.06;5225424;28;20047;-74
2023/04/12 08:05:21;;;;;;;7.90;2.20;;;;;;;10.25;100.00;99837.56;5224656;28;20104;-74
2023/04/12 08:07:51;;;;;;;13.32;2.50;;;;;;;10.25;100.00;99834.06;5224874;28;21713;-74
2023/04/12 08:10:22;;;;;;;12.50;2.17;;;;;;;10.37;100.00;99819.94;5225398;28;20053;-74
2023/04/12 08:12:52;;;;;;;11.75;2.10;;;;;;;10.24;100.00;99835.06;5207278;28;20025;-74
2023/04/12 08:15:23;;;;;;;8.80;2.08;;;;;;;10.28;100.00;99836.34;5225434;28;20052;-74
2023/04/12 08:17:54;;;;;;;7.93;1.70;;;;;;;10.28;100.00;99831.81;5223928;28;20079;-74
2023/04/12 08:20:24;;;;;;;12.63;2.30;;;;;;;10.33;100.00;99839.28;5224947;28;20017;-74
2023/04/12 08:22:55;;;;;;;11.75;2.97;;;;;;;10.31;100.00;99831.44;5224632;28;20029;-74
2023/04/12 08:25:25;;;;;;;10.18;2.08;;;;;;;10.29;100.00;99824.59;5224648;28;20029;-74
2023/04/12 08:27:56;;;;;;;11.90;2.25;;;;;;;10.43;100.00;99823.72;5224694;28;20124;-74
2023/04/12 08:30:27;;;;;;;24.00;7.15;;;;;;;10.83;100.00;99826.81;5206312;28;20025;-74
2023/04/12 08:32:57;;;;;;;17.17;3.30;;;;;;;11.15;100.00;99834.31;5206962;28;20020;-73
2023/04/12 08:35:28;;;;;;;24.20;6.05;;;;;;;11.82;100.00;99835.59;5224892;28;20382;-74
2023/04/12 08:38:05;;;;;;;15.45;4.53;;;;;;;12.41;100.00;99824.25;5224634;28;20029;-74
2023/04/12 08:40:36;;;;;;;25.95;10.88;;;;;;;12.51;100.00;99823.03;5206954;28;20017;-75
2023/04/12 08:43:08;;;;;;;19.63;7.25;;;;;;;12.91;100.00;99832.81;5212021;28;20068;-73
2023/04/12 08:45:38;;;;;;;12.77;2.47;;;;;;;13.07;100.00;99834.28;5224170;28;20035;-73
2023/04/12 08:48:09;;;;;;;19.63;5.10;;;;;;;13.36;100.00;99830.38;5224269;28;20040;-74
2023/04/12 08:50:42;;;;;;;17.83;6.07;;;;;;;13.21;100.00;99830.59;5206808;28;20077;-74
2023/04/12 08:53:13;;;;;;;16.50;3.38;;;;;;;12.91;100.00;99815.84;5223840;28;20151;-74
2023/04/12 08:55:44;;;;;;;13.65;2.75;;;;;;;12.67;100.00;99819.97;5224514;28;20107;-74
2023/04/12 08:58:15;;;;;;;14.85;2.60;;;;;;;12.66;100.00;99815.63;5206099;28;20032;-74
2023/04/12 09:00:46;;;;;;;18.48;2.50;;;;;;;12.61;100.00;99821.59;5206692;28;20025;-74
2023/04/12 09:03:16;;;;;;;16.50;3.58;;;;;;;12.98;100.00;99818.53;5224515;28;20119;-74
2023/04/12 09:05:47;;;;;;;22.25;3.33;;;;;;;12.72;100.00;99827.41;5224050;28;20028;-74
2023/04/12 09:08:17;;;;;;;22.42;3.97;;;;;;;12.54;100.00;99828.81;5223896;28;20029;-74
2023/04/12 09:10:48;;;;;;;14.48;4.97;;;;;;;12.27;100.00;99821.72;5224029;28;20566;-74
2023/04/12 09:13:31;;;;;;;19.88;4.05;;;;;;;12.11;100.00;99810.31;5224240;28;20489;-74
2023/04/12 09:16:02;;;;;;;22.13;3.80;;;;;;;12.02;100.00;99803.44;5223913;28;20099;-74
2023/04/12 09:18:46;;;;;;;15.82;3.05;;;;;;;12.05;100.00;99810.25;5222951;28;20043;-74
2023/04/12 09:21:17;;;;;;;19.35;2.97;;;;;;;12.78;100.00;99808.59;5206471;28;20020;-74
2023/04/12 09:24:02;;;;;;;14.70;2.83;;;;;;;13.36;100.00;99816.91;5206386;28;20485;-74
2023/04/12 09:26:32;;;;;;;11.27;2.20;;;;;;;13.74;100.00;99806.22;5223702;28;20055;-75
2023/04/12 09:29:04;;;;;;;18.27;2.75;;;;;;;13.66;100.00;99817.25;5224122;28;20033;-75
2023/04/12 09:31:34;;;;;;;12.70;2.50;;;;;;;13.38;100.00;99819.38;5206620;28;20029;-74
2023/04/12 09:34:07;;;;;;;13.30;2.95;;;;;;;13.06;100.00;99808.41;5224405;28;20428;-74
2023/04/12 09:36:39;;;;;;;71.72;36.22;;;;;;;12.67;100.00;99801.94;5224291;28;20389;-74
2023/04/12 09:39:10;;;;;;;21.02;3.42;;;;;;;12.43;100.00;99800.66;5223537;28;20513;-74
2023/04/12 09:41:40;;;;;;;21.65;3.30;;;;;;;12.33;100.00;99807.47;5223457;28;20079;-74
2023/04/12 09:44:29;;;;;;;18.92;3.38;;;;;;;12.10;100.00;99814.03;5211797;28;20116;-74
2023/04/12 09:47:01;;;;;;;17.15;4.70;;;;;;;11.82;100.00;99829.41;5206333;28;20029;-74
2023/04/12 09:49:47;;;;;;;17.23;3.42;;;;;;;11.58;100.00;99833.34;5223358;28;20032;-74
2023/04/12 09:52:18;;;;;;;17.20;2.80;;;;;;;11.40;100.00;99833.88;5217633;28;20516;-74
2023/04/12 09:54:50;;;;;;;15.95;2.78;;;;;;;11.49;100.00;99840.72;5223964;28;20029;-74
2023/04/12 09:57:23;;;;;;;12.73;2.08;;;;;;;11.58;100.00;99834.19;5223522;28;20026;-74
2023/04/12 10:00:00;;;;;;;14.38;2.28;;;;;;;11.66;100.00;99828.66;5223595;28;20067;-74
2023/04/12 10:02:31;;;;;;;15.02;2.50;;;;;;;11.77;100.00;99831.81;5224075;28;20024;-74
2023/04/12 10:05:02;;;;;;;16.63;2.40;;;;;;;11.79;100.00;99830.56;5206290;28;20033;-74
2023/04/12 10:07:48;;;;;;;10.18;2.00;;;;;;;12.01;100.00;99830.53;5223540;28;20031;-74
2023/04/12 10:10:20;;;;;;;13.43;2.35;;;;;;;12.17;100.00;99832.88;5217764;28;20033;-74
2023/04/12 10:12:50;;;;;;;16.30;1.88;;;;;;;12.31;100.00;99828.38;5223427;28;20507;-74
2023/04/12 10:15:21;;;;;;;8.68;1.80;;;;;;;12.48;100.00;99832.34;5206035;28;20024;-75
2023/04/12 10:17:53;;;;;;;7.68;1.90;;;;;;;12.65;100.00;99833.63;5223271;28;20024;-75
2023/04/12 10:20:23;;;;;;;16.45;2.15;;;;;;;12.49;100.00;99825.09;5223768;28;20025;-74
2023/04/12 10:22:55;;;;;;;13.13;3.08;;;;;;;12.29;100.00;99822.34;5223012;28;20025;-75
2023/04/12 10:25:29;;;;;;;14.38;2.05;;;;;;;12.44;100.00;99823.00;5223558;28;20500;-74
2023/04/12 10:28:20;;;;;;;8.98;1.73;;;;;;;12.36;100.00;99815.13;5192886;28;20075;-74
2023/04/12 10:30:55;;;;;;;10.45;2.33;;;;;;;12.18;100.00;99815.69;5209224;28;20047;-74
2023/04/12 10:33:27;;;;;;;17.90;2.45;;;;;;;12.22;100.00;99818.81;5209371;28;20029;-74
2023/04/12 10:35:59;;;;;;;13.20;2.58;;;;;;;12.21;100.00;99817.16;5227100;28;20024;-74
2023/04/12 10:38:31;;;;;;;13.20;2.70;;;;;;;12.15;100.00;99811.56;5226803;28;20021;-74
2023/04/12 10:41:12;;;;;;;11.15;3.42;;;;;;;12.10;100.00;99810.50;5209444;28;20028;-74
2023/04/12 10:44:00;;;;;;;15.82;3.72;;;;;;;12.13;100.00;99821.66;5226627;28;20162;-74
2023/04/12 10:46:49;;;;;;;12.82;2.17;;;;;;;11.83;100.00;99815.75;5226606;28;20082;-74
2023/04/12 10:49:19;;;;;;;24.35;3.15;;;;;;;11.55;100.00;99817.66;5228930;28;20025;-75
2023/04/12 10:52:00;;;;;;;11.90;3.25;;;;;;;11.61;100.00;99822.22;5226925;28;20083;-74
2023/04/12 10:57:48;;;;;;;13.32;2.45;;;;;;;11.51;100.00;99819.06;5215728;28;20029;-74
2023/04/12 11:00:19;;;;;;;15.88;2.75;;;;;;;11.22;100.00;99836.22;5226658;28;20021;-75
2023/04/12 11:03:04;;;;;;;13.52;2.40;;;;;;;10.88;100.00;99853.88;5227307;28;20025;-74
2023/04/12 11:05:56;;;;;;;20.20;2.60;;;;;;;10.29;100.00;99848.72;5227108;28;20027;-74
2023/04/12 11:08:28;;;;;;;15.82;2.40;;;;;;;9.98;100.00;99846.25;5226349;28;20031;-75
2023/04/12 11:11:01;;;;;;;21.42;3.65;;;;;;;10.16;100.00;99837.84;5225702;28;20029;-76
2023/04/12 11:13:47;;;;;;;17.77;3.42;;;;;;;10.69;100.00;99839.25;5226443;28;20060;-75
2023/04/12 11:16:17;;;;;;;30.73;10.73;;;;;;;11.27;100.00;99841.81;5226147;28;20531;-75
2023/04/12 11:18:48;;;;;;;16.70;2.72;;;;;;;11.58;100.00;99833.34;5208738;28;20029;-75
2023/04/12 11:21:19;;;;;;;19.20;2.97;;;;;;;11.86;100.00;99827.97;5225601;28;20021;-75
2023/04/12 11:23:52;;;;;;;11.50;2.20;;;;;;;12.03;100.00;99823.09;5226207;28;20386;-75
2023/04/12 11:26:24;;;;;;;15.27;2.35;;;;;;;12.49;100.00;99819.72;5225695;28;20558;-74
2023/04/12 11:28:55;;;;;;;15.65;3.38;;;;;;;12.90;100.00;99816.88;5226103;28;20104;-75
2023/04/12 11:31:25;;;;;;;11.68;2.90;;;;;;;13.21;100.00;99813.56;5208193;28;20426;-74
2023/04/12 11:33:59;;;;;;;17.17;2.83;;;;;;;12.80;100.00;99803.84;5225753;28;20780;-74
2023/04/12 11:36:29;;;;;;;14.00;4.63;;;;;;;12.77;100.00;99812.31;5225823;28;20027;-74
2023/04/12 11:39:00;;;;;;;17.42;2.83;;;;;;;12.76;100.00;99802.59;5226000;28;20021;-75
2023/04/12 11:41:30;;;;;;;16.15;2.90;;;;;;;12.96;100.00;99807.97;5224702;28;20070;-74
2023/04/12 11:44:01;;;;;;;13.82;3.30;;;;;;;13.07;100.00;99806.53;5212461;28;20031;-74
2023/04/12 11:46:33;;;;;;;16.75;2.55;;;;;;;12.91;100.00;99805.09;5224948;28;20029;-74
2023/04/12 11:49:03;;;;;;;15.70;2.92;;;;;;;12.80;100.00;99800.28;5225880;28;20024;-74
2023/04/12 11:51:35;;;;;;;11.13;2.47;;;;;;;12.84;100.00;99799.69;5225215;28;20025;-75